createdAt,value
2022-10-08T00:01:52.184Z,5.17
2022-10-08T00:06:55.694Z,5.20
2022-10-08T00:11:59.108Z,4.60
2022-10-08T00:17:03.982Z,3.90
2022-10-08T00:22:07.376Z,3.83
2022-10-08T00:27:12.887Z,4.47
2022-10-08T00:32:20.095Z,4.20
2022-10-08T00:37:23.585Z,4.23
2022-10-08T00:42:27.444Z,4.30
2022-10-08T00:47:56.528Z,4.37
2022-10-08T00:53:03.007Z,3.87
2022-10-08T00:58:12.746Z,4.00
2022-10-08T01:03:17.899Z,4.13
2022-10-08T01:08:28.817Z,4.00
2022-10-08T01:13:42.099Z,4.73
2022-10-08T01:18:55.140Z,5.10
2022-10-08T01:24:44.388Z,4.80
2022-10-08T01:29:50.814Z,4.87
2022-10-08T01:35:00.319Z,5.07
2022-10-08T01:40:08.059Z,4.97
2022-10-08T01:45:16.784Z,4.93
2022-10-08T01:50:25.721Z,4.33
2022-10-08T01:55:35.102Z,4.80
2022-10-08T02:00:42.554Z,4.83
2022-10-08T02:05:51.644Z,4.93
2022-10-08T02:10:55.040Z,5.20
2022-10-08T02:16:07.169Z,5.13
2022-10-08T02:21:17.252Z,5.20
2022-10-08T02:26:26.720Z,5.33
2022-10-08T02:31:38.182Z,5.00
2022-10-08T02:36:44.296Z,5.80
2022-10-08T02:41:51.677Z,5.33
2022-10-08T02:47:00.847Z,5.00
2022-10-08T02:52:06.533Z,4.37
2022-10-08T02:57:15.812Z,4.90
2022-10-08T03:02:27.906Z,4.17
2022-10-08T03:07:33.060Z,4.70
2022-10-08T03:12:36.529Z,4.13
2022-10-08T03:17:44.955Z,4.10
2022-10-08T03:22:48.773Z,4.47
2022-10-08T03:27:52.519Z,4.53
2022-10-08T03:32:57.442Z,4.40
2022-10-08T03:38:00.904Z,4.23
2022-10-08T03:43:04.526Z,4.60
2022-10-08T03:48:09.418Z,4.70
2022-10-08T03:53:12.899Z,5.10
2022-10-08T03:58:16.618Z,4.70
2022-10-08T04:03:21.603Z,5.17
2022-10-08T04:08:26.074Z,5.40
2022-10-08T04:13:29.565Z,6.60
2022-10-08T04:18:35.201Z,6.13
2022-10-08T04:23:40.771Z,5.60
2022-10-08T04:28:45.911Z,6.10
2022-10-08T04:33:52.490Z,5.40
2022-10-08T04:38:55.917Z,5.17
2022-10-08T04:44:01.619Z,6.23
2022-10-08T04:49:06.573Z,6.17
2022-10-08T04:54:10.033Z,5.10
2022-10-08T04:59:13.383Z,4.40
2022-10-08T05:04:18.195Z,4.30
2022-10-08T05:09:21.718Z,5.13
2022-10-08T05:14:25.207Z,8.10
2022-10-08T05:19:30.112Z,8.93
2022-10-08T05:24:34.164Z,8.30
2022-10-08T05:29:37.554Z,8.00
2022-10-08T05:34:42.436Z,7.60
2022-10-08T05:39:45.856Z,6.73
2022-10-08T05:44:49.237Z,6.40
2022-10-08T05:49:54.141Z,5.63
2022-10-08T05:54:57.578Z,6.07
2022-10-08T06:00:01.031Z,5.40
2022-10-08T06:05:06.256Z,6.37
2022-10-08T06:10:10.457Z,7.30
2022-10-08T06:15:14.619Z,6.13
2022-10-08T06:20:19.617Z,5.93
2022-10-08T06:25:23.075Z,6.53
2022-10-08T06:30:26.504Z,6.00
2022-10-08T06:35:31.607Z,6.90
2022-10-08T06:40:39.189Z,6.97
2022-10-08T06:45:44.103Z,7.00
2022-10-08T06:50:48.970Z,7.53
2022-10-08T06:55:57.896Z,6.43
2022-10-08T07:01:06.185Z,6.80
2022-10-08T07:06:13.704Z,6.97
2022-10-08T07:11:19.617Z,7.80
2022-10-08T07:16:24.856Z,7.10
2022-10-08T07:21:30.850Z,6.70
2022-10-08T07:26:36.261Z,7.60
2022-10-08T07:31:41.117Z,7.53
2022-10-08T07:36:45.970Z,7.40
2022-10-08T07:41:50.481Z,7.40
2022-10-08T07:46:54.272Z,7.40
2022-10-08T07:51:59.110Z,8.17
2022-10-08T07:57:02.627Z,7.50
2022-10-08T08:02:06.048Z,7.03
2022-10-08T08:07:10.931Z,7.20
2022-10-08T08:12:14.301Z,6.33
2022-10-08T08:17:17.698Z,7.30
2022-10-08T08:22:22.593Z,7.00
2022-10-08T08:27:26.036Z,5.80
2022-10-08T08:32:29.436Z,5.90
2022-10-08T08:37:34.367Z,6.43
2022-10-08T08:42:52.147Z,6.60
2022-10-08T08:48:02.597Z,6.93
2022-10-08T08:53:10.834Z,5.60
2022-10-08T08:58:35.262Z,5.67
2022-10-08T09:03:43.566Z,5.10
2022-10-08T09:08:52.316Z,4.97
2022-10-08T09:14:01.603Z,4.97
2022-10-08T09:19:05.299Z,5.00
2022-10-08T09:24:11.410Z,4.83
2022-10-08T09:29:33.765Z,4.27
2022-10-08T09:34:37.277Z,4.00
2022-10-08T09:40:18.696Z,4.70
2022-10-08T09:45:35.401Z,4.27
2022-10-08T09:50:39.961Z,4.00
2022-10-08T09:55:52.191Z,3.80
2022-10-08T10:01:04.050Z,3.50
2022-10-08T10:06:07.877Z,3.33
2022-10-08T10:11:26.624Z,3.37
2022-10-08T10:16:36.860Z,3.30
2022-10-08T10:21:47.879Z,3.70
2022-10-08T10:26:57.673Z,3.00
2022-10-08T10:32:06.007Z,3.23
2022-10-08T10:37:15.747Z,2.87
2022-10-08T10:42:28.129Z,3.13
2022-10-08T10:47:33.164Z,2.80
2022-10-08T10:53:03.229Z,2.90
2022-10-08T10:58:27.960Z,3.20
2022-10-08T11:04:04.044Z,3.17
2022-10-08T11:09:20.495Z,3.00
2022-10-08T11:14:45.399Z,3.00
2022-10-08T11:19:57.683Z,3.40
2022-10-08T11:25:22.660Z,3.43
2022-10-08T11:30:43.132Z,3.43
2022-10-08T11:35:56.926Z,3.53
2022-10-08T11:41:12.358Z,3.77
2022-10-08T11:46:31.082Z,3.43
2022-10-08T11:51:38.827Z,4.70
2022-10-08T11:56:45.801Z,4.50
2022-10-08T12:01:59.472Z,3.87
2022-10-08T12:07:22.279Z,4.00
2022-10-08T12:13:07.777Z,3.83
2022-10-08T12:18:34.506Z,3.93
2022-10-08T12:23:53.612Z,4.13
2022-10-08T12:29:02.087Z,3.60
2022-10-08T12:39:56.905Z,2.90
2022-10-08T12:45:19.058Z,2.80
2022-10-08T12:50:57.407Z,3.33
2022-10-08T12:56:01.482Z,3.27
2022-10-08T13:01:07.062Z,3.03
2022-10-08T13:06:30.391Z,2.63
2022-10-08T13:11:36.829Z,3.63
2022-10-08T13:16:48.346Z,2.67
2022-10-08T13:22:07.559Z,3.33
2022-10-08T13:28:08.887Z,3.40
2022-10-08T13:39:57.894Z,4.00
2022-10-08T13:45:31.788Z,3.57
2022-10-08T14:01:26.598Z,3.40
2022-10-08T14:17:28.550Z,3.53
2022-10-08T14:28:29.925Z,3.85
2022-10-08T14:50:55.680Z,3.30
2022-10-08T15:01:22.154Z,3.40
2022-10-08T15:47:00.314Z,3.07
2022-10-08T15:52:48.679Z,3.63
2022-10-08T15:57:54.010Z,2.80
2022-10-08T16:02:58.388Z,3.67
2022-10-08T16:08:01.906Z,3.60
2022-10-08T16:13:51.177Z,3.27
2022-10-08T16:24:21.969Z,3.13
2022-10-08T16:29:25.629Z,3.17
2022-10-08T16:34:33.582Z,3.90
2022-10-08T16:39:37.175Z,4.07
2022-10-08T16:44:40.754Z,3.93
2022-10-08T16:49:45.931Z,4.20
2022-10-08T16:54:55.486Z,4.90
2022-10-08T17:00:03.297Z,4.43
2022-10-08T17:05:09.647Z,5.30
2022-10-08T18:54:11.198Z,8.43
2022-10-08T18:59:18.816Z,6.97
2022-10-08T19:04:23.808Z,6.60
2022-10-08T19:09:28.751Z,6.00
2022-10-08T19:14:34.125Z,5.43
2022-10-08T19:19:37.853Z,4.97
2022-10-08T19:24:43.301Z,4.53
2022-10-08T19:29:47.748Z,3.43
2022-10-08T19:34:52.367Z,4.20
2022-10-08T19:39:58.856Z,3.47
2022-10-08T19:45:03.672Z,3.53
2022-10-08T19:50:09.441Z,4.10
2022-10-08T19:55:15.397Z,4.07
2022-10-08T20:00:19.022Z,3.40
2022-10-08T20:05:22.714Z,3.97
2022-10-08T20:10:30.996Z,3.67
2022-10-08T20:15:38.292Z,4.33
2022-10-08T20:20:41.935Z,4.70
2022-10-08T20:25:47.033Z,4.60
2022-10-08T20:30:50.599Z,4.53
2022-10-08T20:35:54.222Z,5.27
2022-10-08T20:40:59.121Z,5.40
2022-10-08T20:46:03.727Z,4.87
2022-10-08T20:51:09.639Z,4.93
2022-10-08T20:56:15.104Z,4.80
2022-10-08T21:01:20.629Z,5.27
2022-10-08T21:06:25.685Z,5.67
2022-10-08T21:11:31.563Z,5.90
2022-10-08T21:16:38.414Z,5.10
2022-10-08T21:21:42.630Z,5.17
2022-10-08T21:26:47.629Z,5.53
2022-10-08T21:31:51.182Z,4.90
2022-10-08T21:36:54.695Z,5.60
2022-10-08T21:41:59.567Z,5.30
2022-10-08T21:47:02.989Z,5.77
2022-10-08T21:52:06.433Z,5.20
2022-10-08T21:57:15.477Z,5.37
2022-10-08T22:02:19.755Z,5.50
2022-10-08T22:07:23.242Z,5.53
2022-10-08T22:12:28.242Z,5.30
2022-10-08T22:17:31.668Z,5.87
2022-10-08T22:22:35.158Z,5.93
2022-10-08T22:27:40.132Z,5.70
2022-10-08T22:38:42.034Z,5.47
2022-10-08T22:43:47.309Z,4.93
2022-10-08T22:48:51.212Z,5.10
2022-10-08T22:53:54.739Z,5.00
2022-10-08T22:59:00.310Z,4.80
2022-10-08T23:04:03.746Z,5.33
2022-10-08T23:09:09.025Z,6.00
2022-10-08T23:14:13.930Z,5.23
2022-10-08T23:19:17.583Z,4.70
2022-10-08T23:24:21.185Z,4.43
2022-10-08T23:29:26.216Z,4.30
2022-10-08T23:34:29.639Z,4.27
2022-10-08T23:39:33.241Z,4.33
2022-10-08T23:44:38.154Z,4.27
2022-10-08T23:49:41.613Z,4.50
2022-10-08T23:54:45.083Z,3.77
2022-10-08T23:59:50.046Z,3.40
